Time;durP1;ratioP1;P1;durP2;ratioP2;P2;SDS_P1;SDS_P2;PMS_P1;PMS_P2;Temp;Humidity;BMP_temperature;BMP_pressure;BME280_temperature;BME280_humidity;BME280_pressure;Samples;Min_cycle;Max_cycle;Signal;HPM_P1;HPM_P2
2021/08/18 00:00:05;;;;;;;21.15;11.77;;;14.40;37.50;;;;;;5096627;27;20046;-74
2021/08/18 00:02:54;;;;;;;20.95;11.63;;;14.50;38.40;;;;;;5098740;28;20507;-74
2021/08/18 00:05:44;;;;;;;22.58;11.60;;;14.50;38.10;;;;;;5107349;27;20580;-74
2021/08/18 00:08:32;;;;;;;22.23;12.05;;;14.40;37.00;;;;;;5088537;28;20059;-74
2021/08/18 00:11:21;;;;;;;18.77;11.40;;;14.50;37.30;;;;;;5098772;27;20066;-74
2021/08/18 00:14:09;;;;;;;22.48;11.68;;;14.60;37.10;;;;;;5100468;27;20083;-74
2021/08/18 00:16:59;;;;;;;23.67;11.90;;;14.60;36.70;;;;;;5083074;28;20491;-74
2021/08/18 00:19:47;;;;;;;19.70;11.35;;;14.50;35.70;;;;;;5101734;28;20043;-74
2021/08/18 00:22:37;;;;;;;24.05;12.32;;;14.60;35.40;;;;;;5096365;28;20039;-74
2021/08/18 00:25:26;;;;;;;22.77;12.65;;;14.60;35.10;;;;;;5100971;28;20051;-74
2021/08/18 00:28:14;;;;;;;24.23;11.70;;;14.70;34.40;;;;;;5103195;27;20411;-74
2021/08/18 00:31:03;;;;;;;22.98;11.75;;;14.60;33.50;;;;;;5109947;28;20043;-74
2021/08/18 00:33:52;;;;;;;23.67;12.00;;;14.70;34.40;;;;;;5104018;28;20056;-74
2021/08/18 00:36:41;;;;;;;20.27;11.88;;;14.80;32.70;;;;;;5096678;28;20051;-74
2021/08/18 00:39:29;;;;;;;20.50;12.15;;;14.80;33.30;;;;;;5100673;28;20787;-74
2021/08/18 00:42:19;;;;;;;21.25;12.13;;;14.70;32.00;;;;;;5101464;28;20049;-75
2021/08/18 00:45:09;;;;;;;23.17;11.77;;;14.70;32.40;;;;;;5101368;28;20498;-74
2021/08/18 00:47:58;;;;;;;21.98;11.27;;;14.80;32.60;;;;;;5093579;28;20054;-75
2021/08/18 00:50:52;;;;;;;21.60;12.35;;;14.80;32.70;;;;;;5084555;28;20044;-74
2021/08/18 00:53:41;;;;;;;21.55;11.43;;;14.70;32.60;;;;;;5093638;27;20051;-74
2021/08/18 00:56:31;;;;;;;22.85;12.45;;;14.80;34.00;;;;;;5102917;27;20043;-74
2021/08/18 00:59:20;;;;;;;27.60;12.05;;;14.70;34.20;;;;;;5101460;28;20051;-74
2021/08/18 01:02:08;;;;;;;22.15;11.80;;;14.70;32.10;;;;;;5103299;27;20521;-74
2021/08/18 01:04:57;;;;;;;23.50;12.05;;;14.60;33.00;;;;;;5115026;27;20043;-74
2021/08/18 01:07:48;;;;;;;24.95;12.13;;;14.60;32.50;;;;;;5101485;27;20905;-74
2021/08/18 01:10:37;;;;;;;22.75;12.30;;;14.80;32.70;;;;;;5100150;27;20047;-74
2021/08/18 01:13:25;;;;;;;24.10;11.90;;;14.70;31.80;;;;;;5106963;27;20510;-74
2021/08/18 01:16:14;;;;;;;22.58;12.55;;;14.80;31.20;;;;;;5105915;27;20420;-75
2021/08/18 01:19:03;;;;;;;20.80;11.60;;;14.80;30.60;;;;;;5099271;28;20218;-74
2021/08/18 01:21:51;;;;;;;19.10;11.25;;;14.80;31.70;;;;;;5099841;28;20054;-74
2021/08/18 01:24:41;;;;;;;20.02;11.50;;;14.90;31.20;;;;;;5108771;27;20434;-74
2021/08/18 01:27:30;;;;;;;20.67;11.25;;;14.80;30.00;;;;;;5106120;28;20494;-74
2021/08/18 01:30:21;;;;;;;18.42;11.05;;;14.90;28.90;;;;;;5100569;28;20070;-74
2021/08/18 01:33:12;;;;;;;24.50;12.05;;;14.70;30.10;;;;;;5099432;27;20135;-74
2021/08/18 01:36:03;;;;;;;20.27;11.45;;;14.80;30.90;;;;;;5104271;27;20280;-74
2021/08/18 01:38:52;;;;;;;19.83;10.88;;;14.80;30.10;;;;;;5109434;27;20054;-74
2021/08/18 01:41:41;;;;;;;18.40;11.38;;;14.70;29.20;;;;;;5098720;28;20219;-75
2021/08/18 01:44:32;;;;;;;20.73;11.30;;;14.80;30.30;;;;;;5100189;27;20047;-74
2021/08/18 01:47:21;;;;;;;19.15;11.82;;;14.80;29.50;;;;;;5086604;28;20052;-74
2021/08/18 01:50:11;;;;;;;18.00;10.90;;;14.80;29.00;;;;;;5104430;28;20521;-74
2021/08/18 01:52:59;;;;;;;22.70;11.75;;;14.80;29.70;;;;;;5094277;28;20737;-75
2021/08/18 01:56:02;;;;;;;20.02;10.30;;;14.80;28.30;;;;;;5093941;28;20510;-74
2021/08/18 01:58:51;;;;;;;19.33;11.40;;;14.90;29.30;;;;;;5090012;27;20051;-74
2021/08/18 02:01:39;;;;;;;20.52;10.88;;;14.90;29.30;;;;;;5094546;28;20047;-75
2021/08/18 02:04:29;;;;;;;17.27;10.57;;;14.80;29.80;;;;;;5104207;27;20127;-74
2021/08/18 02:07:18;;;;;;;20.77;11.02;;;14.90;29.90;;;;;;5096503;27;20039;-74
2021/08/18 02:10:09;;;;;;;18.25;10.80;;;14.90;29.60;;;;;;5102707;27;20051;-74
2021/08/18 02:12:57;;;;;;;19.65;10.90;;;15.00;29.60;;;;;;5099818;27;20438;-74
2021/08/18 02:15:46;;;;;;;16.73;10.00;;;15.00;28.90;;;;;;5104403;27;20066;-74
2021/08/18 02:18:35;;;;;;;18.35;10.07;;;15.00;28.30;;;;;;5099735;27;20044;-74
2021/08/18 02:21:25;;;;;;;15.05;9.90;;;14.90;28.10;;;;;;5104498;27;20496;-74
2021/08/18 02:24:13;;;;;;;17.63;9.60;;;14.90;28.90;;;;;;5099435;27;20051;-74
2021/08/18 02:27:01;;;;;;;14.32;8.52;;;14.80;28.40;;;;;;5099575;27;20418;-74
2021/08/18 02:29:50;;;;;;;13.82;8.40;;;14.90;29.50;;;;;;5080621;28;20036;-74
2021/08/18 02:32:38;;;;;;;12.32;7.85;;;14.80;29.00;;;;;;5074117;28;20045;-74
2021/08/18 02:35:27;;;;;;;11.25;6.93;;;14.80;28.80;;;;;;5082787;28;20047;-74
2021/08/18 02:38:17;;;;;;;9.57;6.25;;;14.70;29.30;;;;;;5094260;28;20822;-74
2021/08/18 02:41:05;;;;;;;9.90;5.93;;;14.70;29.50;;;;;;5108085;27;20054;-74
2021/08/18 02:43:54;;;;;;;7.45;4.32;;;14.70;31.50;;;;;;5099596;27;20051;-74
2021/08/18 02:46:42;;;;;;;8.00;5.13;;;14.60;32.10;;;;;;5100649;27;20045;-74
2021/08/18 02:49:30;;;;;;;8.15;4.75;;;14.70;31.40;;;;;;5103790;28;20094;-74
2021/08/18 02:52:19;;;;;;;7.97;4.85;;;14.60;32.50;;;;;;5102662;28;20042;-74
2021/08/18 02:55:10;;;;;;;5.75;3.95;;;14.60;32.50;;;;;;5097719;28;20051;-74
2021/08/18 02:57:58;;;;;;;5.85;3.80;;;14.60;32.50;;;;;;5104420;28;20036;-74
2021/08/18 03:00:46;;;;;;;5.00;3.88;;;14.60;32.50;;;;;;5106052;28;20088;-73
2021/08/18 03:03:35;;;;;;;5.65;3.80;;;14.60;32.80;;;;;;5098509;28;20051;-74
2021/08/18 03:06:23;;;;;;;5.05;3.50;;;14.60;34.10;;;;;;5094903;28;20523;-73
2021/08/18 03:09:12;;;;;;;5.72;3.90;;;14.60;34.00;;;;;;5097660;28;20040;-74
2021/08/18 03:12:01;;;;;;;6.88;3.63;;;14.70;33.70;;;;;;5104859;28;20059;-74
2021/08/18 03:14:50;;;;;;;6.03;3.58;;;14.70;33.60;;;;;;5099085;28;20039;-74
2021/08/18 03:17:38;;;;;;;5.18;3.45;;;14.60;34.10;;;;;;5095778;28;20161;-73
2021/08/18 03:20:27;;;;;;;4.72;3.45;;;14.60;34.40;;;;;;5098606;28;20044;-73
2021/08/18 03:23:15;;;;;;;5.32;3.60;;;14.60;34.40;;;;;;5094623;27;20039;-74
2021/08/18 03:26:04;;;;;;;5.88;3.20;;;14.70;34.40;;;;;;5103382;28;20052;-74
2021/08/18 03:28:53;;;;;;;4.13;2.85;;;14.60;32.70;;;;;;5099156;28;20414;-74
2021/08/18 03:31:41;;;;;;;4.25;2.85;;;14.60;33.40;;;;;;5094956;28;20039;-74
2021/08/18 03:34:30;;;;;;;5.25;3.20;;;14.70;34.30;;;;;;5099954;28;20486;-74
2021/08/18 03:37:18;;;;;;;4.22;2.80;;;14.70;33.90;;;;;;5100518;28;20051;-74
2021/08/18 03:40:08;;;;;;;4.53;2.85;;;14.60;34.10;;;;;;5102160;27;20118;-74
2021/08/18 03:42:56;;;;;;;4.60;2.97;;;14.60;34.10;;;;;;5096926;28;20441;-74
2021/08/18 03:45:46;;;;;;;4.22;3.03;;;14.60;33.80;;;;;;5098427;28;20055;-74
2021/08/18 03:48:34;;;;;;;7.47;3.05;;;14.60;34.50;;;;;;5097740;28;20051;-74
2021/08/18 03:51:23;;;;;;;4.03;2.75;;;14.70;33.60;;;;;;5107757;27;20043;-74
2021/08/18 03:54:11;;;;;;;3.40;2.58;;;14.70;33.90;;;;;;5100371;28;20517;-74
2021/08/18 03:56:59;;;;;;;3.65;2.83;;;14.60;34.20;;;;;;5094180;28;20077;-74
2021/08/18 03:59:48;;;;;;;4.47;3.03;;;14.70;34.70;;;;;;5095559;28;20122;-74
2021/08/18 04:02:38;;;;;;;3.22;2.60;;;14.60;34.40;;;;;;5103317;28;20069;-74
2021/08/18 04:05:26;;;;;;;3.55;3.00;;;14.60;34.40;;;;;;5098654;28;20066;-74
2021/08/18 04:08:15;;;;;;;5.32;2.78;;;14.60;35.50;;;;;;5083269;28;20051;-74
2021/08/18 04:11:05;;;;;;;3.33;2.63;;;14.70;35.10;;;;;;5100979;28;20050;-73
2021/08/18 04:13:53;;;;;;;3.45;2.67;;;14.50;35.10;;;;;;5103720;28;20059;-74
2021/08/18 04:16:42;;;;;;;3.47;2.70;;;14.60;36.10;;;;;;5080201;28;20048;-74
2021/08/18 04:19:32;;;;;;;5.28;2.55;;;14.60;36.70;;;;;;5091468;28;20073;-74
2021/08/18 04:22:20;;;;;;;3.95;2.25;;;14.70;36.80;;;;;;5100936;28;20067;-74
2021/08/18 04:25:11;;;;;;;3.92;2.75;;;14.50;37.00;;;;;;5101987;28;20047;-74
2021/08/18 04:27:59;;;;;;;3.58;2.70;;;14.60;37.00;;;;;;5097373;28;20035;-74
2021/08/18 04:30:47;;;;;;;5.25;2.55;;;14.70;36.40;;;;;;5098030;28;20035;-74
2021/08/18 04:33:36;;;;;;;5.38;2.50;;;14.70;35.10;;;;;;5099041;28;20066;-74
2021/08/18 04:36:25;;;;;;;3.90;2.20;;;14.70;36.60;;;;;;5098506;28;20048;-74
2021/08/18 04:39:14;;;;;;;3.53;2.30;;;14.60;35.70;;;;;;5102066;27;20744;-73
2021/08/18 04:42:02;;;;;;;4.53;2.35;;;14.60;36.60;;;;;;5096754;28;20047;-72
2021/08/18 04:44:50;;;;;;;3.13;2.15;;;14.60;36.00;;;;;;5098907;28;20517;-74
2021/08/18 04:47:39;;;;;;;3.15;2.13;;;14.70;36.90;;;;;;5101921;28;20055;-75
2021/08/18 04:50:27;;;;;;;4.22;2.13;;;14.60;36.90;;;;;;5098230;28;20094;-74
2021/08/18 04:53:17;;;;;;;2.92;2.00;;;14.60;37.30;;;;;;5096759;28;20047;-74
2021/08/18 04:56:06;;;;;;;5.22;2.50;;;14.70;37.00;;;;;;5096636;28;20052;-74
2021/08/18 04:58:54;;;;;;;2.83;2.13;;;14.70;35.50;;;;;;5083381;28;20056;-74
2021/08/18 05:01:43;;;;;;;3.88;2.10;;;14.70;36.60;;;;;;5100507;28;20052;-74
2021/08/18 05:04:31;;;;;;;3.63;2.20;;;14.80;38.20;;;;;;5094825;28;20031;-74
2021/08/18 05:07:20;;;;;;;7.18;2.17;;;14.80;39.30;;;;;;5090459;28;20513;-74
2021/08/18 05:10:10;;;;;;;7.57;2.85;;;14.70;38.10;;;;;;5092229;28;20036;-74
2021/08/18 05:12:59;;;;;;;5.05;2.20;;;14.80;38.00;;;;;;5099819;28;20046;-74
2021/08/18 05:15:47;;;;;;;4.20;2.50;;;14.70;38.30;;;;;;5095003;28;20040;-74
2021/08/18 05:18:35;;;;;;;4.80;2.20;;;14.70;40.60;;;;;;5096067;27;20117;-73
2021/08/18 05:21:24;;;;;;;5.00;2.53;;;14.60;40.50;;;;;;5104175;28;20047;-74
2021/08/18 05:24:13;;;;;;;3.60;2.15;;;14.70;41.20;;;;;;5100011;28;20533;-74
2021/08/18 05:27:03;;;;;;;5.93;2.70;;;14.70;41.90;;;;;;5093520;28;20047;-74
2021/08/18 05:29:51;;;;;;;6.10;2.58;;;14.80;42.20;;;;;;5097178;28;20062;-74
2021/08/18 05:32:40;;;;;;;4.03;2.60;;;14.70;43.30;;;;;;5095582;27;20051;-74
2021/08/18 05:35:28;;;;;;;4.13;2.95;;;14.70;44.30;;;;;;5093294;28;20067;-74
2021/08/18 05:38:17;;;;;;;4.45;2.97;;;14.80;43.50;;;;;;5091498;28;20048;-74
2021/08/18 05:41:05;;;;;;;4.50;2.83;;;14.80;43.60;;;;;;5097075;28;20044;-74
2021/08/18 05:43:55;;;;;;;4.60;3.20;;;14.90;43.50;;;;;;5105286;27;20070;-74
2021/08/18 05:46:43;;;;;;;4.35;2.88;;;14.80;41.90;;;;;;5090535;28;20090;-74
2021/08/18 05:49:32;;;;;;;4.18;3.08;;;14.90;43.70;;;;;;5093923;27;20051;-74
2021/08/18 05:52:20;;;;;;;5.32;3.08;;;14.90;43.00;;;;;;5096201;28;20063;-74
2021/08/18 05:55:09;;;;;;;5.38;3.40;;;14.90;41.40;;;;;;5109015;27;20051;-74
2021/08/18 05:57:57;;;;;;;5.47;3.05;;;14.90;42.00;;;;;;5099928;27;20046;-75
2021/08/18 06:00:47;;;;;;;5.85;3.47;;;15.00;41.50;;;;;;5087934;27;20054;-75
2021/08/18 06:03:36;;;;;;;5.25;3.67;;;15.10;40.70;;;;;;5089071;28;20089;-73
2021/08/18 06:06:24;;;;;;;6.43;3.92;;;15.10;38.70;;;;;;5092867;28;20107;-73
2021/08/18 06:09:12;;;;;;;6.00;3.60;;;15.20;38.00;;;;;;5099593;28;20055;-74
2021/08/18 06:12:01;;;;;;;6.63;4.30;;;15.20;37.60;;;;;;5095577;27;20036;-73
2021/08/18 06:14:50;;;;;;;8.40;4.55;;;15.20;36.40;;;;;;5092977;28;20047;-74
2021/08/18 06:17:40;;;;;;;10.77;4.35;;;15.30;33.30;;;;;;5100247;28;20040;-74
2021/08/18 06:20:28;;;;;;;7.40;4.38;;;15.40;33.90;;;;;;5094364;28;20044;-74
2021/08/18 06:23:20;;;;;;;6.32;4.00;;;15.40;33.20;;;;;;5091939;28;20043;-73
2021/08/18 06:26:08;;;;;;;8.65;4.38;;;15.30;30.80;;;;;;5088131;28;20418;-74
2021/08/18 06:28:57;;;;;;;6.47;4.07;;;15.40;31.40;;;;;;5091372;28;20051;-73
2021/08/18 06:31:45;;;;;;;5.95;3.60;;;15.40;30.30;;;;;;5107736;27;20043;-73
2021/08/18 06:34:35;;;;;;;4.70;2.70;;;15.50;30.00;;;;;;5103051;27;20052;-74
2021/08/18 06:37:23;;;;;;;6.60;2.70;;;15.50;30.60;;;;;;5094970;27;20123;-73
2021/08/18 06:40:12;;;;;;;6.65;2.58;;;15.50;31.60;;;;;;5105467;27;20044;-74
2021/08/18 06:43:01;;;;;;;5.97;2.78;;;15.50;33.30;;;;;;5103187;27;20051;-73
2021/08/18 06:45:49;;;;;;;3.65;2.20;;;15.60;33.90;;;;;;5101306;27;20134;-73
2021/08/18 06:48:38;;;;;;;4.10;2.17;;;15.50;36.50;;;;;;5065236;28;20835;-74
2021/08/18 06:51:27;;;;;;;3.05;2.00;;;15.40;38.00;;;;;;5099560;27;20036;-74
2021/08/18 06:54:16;;;;;;;3.88;2.50;;;15.30;39.60;;;;;;5106295;27;20480;-73
2021/08/18 06:57:05;;;;;;;5.50;2.58;;;15.20;43.10;;;;;;5099395;27;20078;-73
2021/08/18 06:59:53;;;;;;;4.63;2.70;;;15.40;44.40;;;;;;5101286;27;20510;-74
2021/08/18 07:02:43;;;;;;;5.72;2.92;;;15.20;41.70;;;;;;5106035;27;20107;-74
2021/08/18 07:05:34;;;;;;;4.38;2.53;;;15.30;43.80;;;;;;5106655;27;20043;-73
2021/08/18 07:08:24;;;;;;;5.15;3.08;;;15.30;41.80;;;;;;5098868;27;20082;-73
2021/08/18 07:11:12;;;;;;;159.23;94.95;;;15.50;41.90;;;;;;5102255;27;20043;-73
2021/08/18 07:14:02;;;;;;;5.15;3.55;;;15.60;42.10;;;;;;5101472;27;20519;-73
2021/08/18 07:16:50;;;;;;;7.13;3.60;;;15.70;39.10;;;;;;5108549;27;20289;-74
2021/08/18 07:19:39;;;;;;;5.70;2.97;;;15.80;40.10;;;;;;5093918;28;20499;-73
2021/08/18 07:22:27;;;;;;;5.65;3.13;;;15.90;37.00;;;;;;5098300;27;20054;-72
2021/08/18 07:25:17;;;;;;;3.47;2.60;;;15.80;34.20;;;;;;5108101;27;20044;-73
2021/08/18 07:28:05;;;;;;;4.18;2.47;;;16.00;35.60;;;;;;5101888;27;20501;-73
2021/08/18 07:30:53;;;;;;;4.50;2.67;;;16.00;31.80;;;;;;5102332;27;20434;-74
2021/08/18 07:33:42;;;;;;;3.67;2.70;;;16.40;31.70;;;;;;5094368;27;20059;-74
2021/08/18 07:36:30;;;;;;;4.47;2.88;;;16.40;29.90;;;;;;5099780;28;20036;-74
2021/08/18 07:39:18;;;;;;;5.63;2.60;;;16.50;27.50;;;;;;5102327;28;20044;-74
2021/08/18 07:42:08;;;;;;;5.18;2.47;;;16.50;26.20;;;;;;5101479;28;20228;-74
2021/08/18 07:44:57;;;;;;;7.95;2.33;;;16.50;25.90;;;;;;5099345;27;20047;-74
2021/08/18 07:47:46;;;;;;;3.63;2.22;;;16.70;24.40;;;;;;5098388;27;20052;-74
2021/08/18 07:50:34;;;;;;;6.00;1.85;;;16.80;24.40;;;;;;5102210;28;20118;-74
2021/08/18 07:53:23;;;;;;;3.47;2.22;;;16.80;22.40;;;;;;5100703;28;20098;-73
2021/08/18 07:56:11;;;;;;;3.42;2.17;;;17.20;24.40;;;;;;5082217;28;20044;-75
2021/08/18 07:59:01;;;;;;;4.20;1.58;;;17.40;22.30;;;;;;5100230;28;20052;-72
2021/08/18 08:01:56;;;;;;;2.38;1.75;;;17.50;21.50;;;;;;5098968;28;20051;-73
2021/08/18 08:04:45;;;;;;;4.10;1.70;;;17.50;20.20;;;;;;5096818;28;20051;-73
2021/08/18 08:07:33;;;;;;;4.00;1.88;;;17.40;20.10;;;;;;5089278;28;20414;-74
2021/08/18 08:10:23;;;;;;;2.47;1.60;;;17.30;20.00;;;;;;5092443;28;20048;-73
2021/08/18 08:13:11;;;;;;;2.85;1.40;;;17.10;22.00;;;;;;5097753;28;20044;-73
2021/08/18 08:16:02;;;;;;;4.32;1.40;;;17.60;17.10;;;;;;5095108;28;20051;-73
2021/08/18 08:18:50;;;;;;;2.83;0.98;;;17.50;18.80;;;;;;5096044;28;20087;-73
2021/08/18 08:21:39;;;;;;;1.35;1.13;;;17.80;17.50;;;;;;5096360;28;20048;-73
2021/08/18 08:24:27;;;;;;;1.27;0.80;;;17.70;16.90;;;;;;5096729;28;20051;-73
2021/08/18 08:27:15;;;;;;;0.80;0.60;;;17.30;17.40;;;;;;5098518;28;20043;-73
2021/08/18 08:30:05;;;;;;;1.40;0.82;;;17.30;17.50;;;;;;5095835;28;20042;-74
2021/08/18 08:32:54;;;;;;;57.95;38.65;;;17.40;18.80;;;;;;5097786;28;20415;-73
2021/08/18 08:35:44;;;;;;;1.20;0.77;;;17.40;19.10;;;;;;5098466;28;20051;-73
2021/08/18 08:38:32;;;;;;;1.17;0.60;;;17.40;17.60;;;;;;5098805;28;20044;-73
2021/08/18 08:41:21;;;;;;;0.63;0.40;;;17.50;16.60;;;;;;5097002;28;20733;-73
2021/08/18 08:44:09;;;;;;;0.50;0.40;;;17.70;16.50;;;;;;5103602;28;20043;-75
2021/08/18 08:46:57;;;;;;;1.85;0.55;;;17.50;15.20;;;;;;5097742;28;20043;-74
2021/08/18 08:49:49;;;;;;;0.88;0.57;;;17.30;14.70;;;;;;5098546;28;20048;-73
2021/08/18 08:52:37;;;;;;;1.77;0.60;;;17.50;14.50;;;;;;5093716;27;20036;-74
2021/08/18 08:55:26;;;;;;;0.47;0.40;;;17.60;13.00;;;;;;5098423;28;20044;-74
2021/08/18 08:58:14;;;;;;;0.90;0.50;;;17.80;13.70;;;;;;5094897;27;20426;-74
2021/08/18 09:01:06;;;;;;;0.90;0.52;;;17.80;13.10;;;;;;5096510;28;20047;-74
2021/08/18 09:03:54;;;;;;;1.60;0.50;;;17.90;12.60;;;;;;5095527;28;20048;-74
2021/08/18 09:06:44;;;;;;;1.40;0.70;;;18.10;12.60;;;;;;5086308;28;20044;-74
2021/08/18 09:09:33;;;;;;;0.80;0.50;;;18.40;11.80;;;;;;5097104;28;20067;-74
2021/08/18 09:12:27;;;;;;;1.27;0.45;;;18.00;12.20;;;;;;5097517;28;20039;-74
2021/08/18 09:15:17;;;;;;;1.23;0.40;;;18.30;12.00;;;;;;5100750;28;20055;-75
2021/08/18 09:18:05;;;;;;;2.92;0.73;;;17.80;10.00;;;;;;5084192;28;20415;-74
2021/08/18 09:20:53;;;;;;;1.23;0.60;;;17.80;11.00;;;;;;5108405;27;20055;-74
2021/08/18 09:23:43;;;;;;;1.05;0.40;;;17.90;9.50;;;;;;5101373;28;20044;-73
2021/08/18 09:26:36;;;;;;;0.70;0.60;;;17.50;11.20;;;;;;5102542;27;20079;-74
2021/08/18 09:29:36;;;;;;;0.93;0.63;;;17.90;10.60;;;;;;5098586;28;20048;-73
2021/08/18 09:32:28;;;;;;;0.70;0.70;;;17.90;9.50;;;;;;5097618;28;20518;-74
2021/08/18 09:35:27;;;;;;;0.88;0.70;;;17.90;9.10;;;;;;5099364;28;20062;-74
2021/08/18 09:38:17;;;;;;;0.90;0.70;;;17.90;7.80;;;;;;5089820;28;20062;-75
2021/08/18 09:41:17;;;;;;;0.95;0.50;;;18.20;6.10;;;;;;5079556;28;20411;-73
2021/08/18 09:44:06;;;;;;;1.17;0.90;;;18.10;5.80;;;;;;5097251;28;20040;-74
2021/08/18 09:47:05;;;;;;;1.33;1.00;;;17.90;7.50;;;;;;5104370;27;20522;-75
2021/08/18 09:49:59;;;;;;;1.00;0.70;;;18.00;7.50;;;;;;5087079;28;20063;-73
2021/08/18 09:52:48;;;;;;;1.23;0.90;;;18.20;7.10;;;;;;5099437;27;20056;-74
2021/08/18 09:55:37;;;;;;;1.63;0.70;;;17.70;8.10;;;;;;5102442;27;20055;-74
2021/08/18 09:58:32;;;;;;;1.25;0.90;;;17.60;8.60;;;;;;5095628;28;20039;-73
2021/08/18 10:01:20;;;;;;;1.60;0.90;;;17.80;8.40;;;;;;5100835;27;20051;-73
2021/08/18 10:04:10;;;;;;;1.05;0.70;;;17.80;9.40;;;;;;5088083;28;20040;-73
2021/08/18 10:06:59;;;;;;;1.60;1.15;;;17.80;7.60;;;;;;5092622;28;20046;-74
2021/08/18 10:09:47;;;;;;;1.88;1.45;;;17.70;7.90;;;;;;5094222;27;20074;-74
2021/08/18 10:12:36;;;;;;;1.10;0.98;;;17.70;9.60;;;;;;5085836;28;20046;-74
2021/08/18 10:15:26;;;;;;;3.03;1.10;;;18.00;8.80;;;;;;5078879;28;20036;-73
2021/08/18 10:18:26;;;;;;;1.98;1.40;;;17.60;9.30;;;;;;5083797;27;20218;-74
2021/08/18 10:21:19;;;;;;;2.75;1.42;;;17.60;9.60;;;;;;5104731;27;20039;-74
2021/08/18 10:24:08;;;;;;;2.65;1.30;;;17.50;9.20;;;;;;5105574;27;20044;-74
2021/08/18 10:26:56;;;;;;;1.40;1.17;;;17.90;8.40;;;;;;5099405;27;20044;-74
2021/08/18 10:29:46;;;;;;;1.10;1.00;;;18.50;5.70;;;;;;5103398;27;20066;-74
2021/08/18 10:32:37;;;;;;;1.90;1.50;;;18.40;4.10;;;;;;5097794;27;20831;-73
2021/08/18 10:35:45;;;;;;;1.38;1.10;;;18.40;5.20;;;;;;5107853;27;20052;-77
2021/08/18 10:38:36;;;;;;;1.52;1.15;;;19.00;2.20;;;;;;5107967;27;20054;-74
2021/08/18 10:41:57;;;;;;;1.90;1.10;;;19.60;1.00;;;;;;5098592;27;20052;-74
2021/08/18 10:44:47;;;;;;;3.10;1.42;;;19.00;1.30;;;;;;5097319;27;20046;-74
2021/08/18 10:47:40;;;;;;;3.75;1.58;;;18.60;1.90;;;;;;5101722;27;20040;-74
2021/08/18 10:50:46;;;;;;;2.10;1.38;;;18.90;1.00;;;;;;5104259;28;20047;-75
2021/08/18 10:53:35;;;;;;;1.60;1.35;;;19.10;1.00;;;;;;5103421;27;20056;-75
2021/08/18 10:56:43;;;;;;;1.88;1.38;;;20.00;1.00;;;;;;5094835;27;20063;-75
2021/08/18 11:00:07;;;;;;;12.20;2.08;;;19.60;1.00;;;;;;5099064;27;20043;-75
2021/08/18 11:03:00;;;;;;;2.30;1.40;;;19.60;1.00;;;;;;5061338;27;20513;-75
2021/08/18 11:05:51;;;;;;;1.20;1.05;;;19.70;1.00;;;;;;5107248;27;20758;-75
2021/08/18 11:08:43;;;;;;;2.10;1.00;;;20.10;1.00;;;;;;5102937;27;20051;-74
2021/08/18 11:11:42;;;;;;;7.65;1.42;;;19.50;1.00;;;;;;5097549;27;20048;-75
2021/08/18 11:14:35;;;;;;;2.60;1.42;;;19.30;1.00;;;;;;5078286;28;20064;-75
2021/08/18 11:17:25;;;;;;;1.23;1.02;;;19.70;1.00;;;;;;5082103;28;20033;-75
2021/08/18 11:20:18;;;;;;;1.67;1.27;;;19.40;1.00;;;;;;5075184;28;20533;-74
2021/08/18 11:23:07;;;;;;;1.38;1.15;;;19.50;1.00;;;;;;5095775;27;20051;-73
2021/08/18 11:26:07;;;;;;;3.63;1.20;;;20.10;1.00;;;;;;5105281;27;20040;-75
2021/08/18 11:28:58;;;;;;;1.08;0.95;;;20.10;1.00;;;;;;5100147;27;20043;-75
2021/08/18 11:31:49;;;;;;;0.88;0.77;;;20.10;1.00;;;;;;5088577;28;20054;-77
2021/08/18 11:34:39;;;;;;;1.77;0.70;;;19.60;1.00;;;;;;5076072;28;20054;-75
2021/08/18 11:37:29;;;;;;;1.35;1.02;;;19.20;1.00;;;;;;5088705;27;20060;-75
2021/08/18 11:40:18;;;;;;;1.35;0.77;;;19.40;1.00;;;;;;5070560;28;20036;-76
2021/08/18 11:43:07;;;;;;;0.80;0.80;;;19.60;1.00;;;;;;5053889;28;20051;-76
2021/08/18 11:45:56;;;;;;;1.58;1.48;;;19.60;1.00;;;;;;5077085;28;20479;-75
2021/08/18 11:48:44;;;;;;;1.65;1.20;;;19.50;1.00;;;;;;5089522;27;20205;-74
2021/08/18 11:51:33;;;;;;;1.55;1.20;;;20.10;1.00;;;;;;5101758;28;20054;-76
2021/08/18 11:54:24;;;;;;;2.10;1.10;;;20.30;1.00;;;;;;5102607;27;20055;-75
2021/08/18 11:57:13;;;;;;;1.67;1.10;;;20.20;1.00;;;;;;5096468;27;20047;-75
2021/08/18 12:00:05;;;;;;;2.03;1.23;;;20.10;1.00;;;;;;5098157;28;20502;-75
2021/08/18 12:02:54;;;;;;;1.55;1.20;;;20.10;1.00;;;;;;5098648;28;20391;-75
2021/08/18 12:05:43;;;;;;;1.83;1.30;;;20.70;1.00;;;;;;5101858;27;20047;-75
2021/08/18 12:08:38;;;;;;;1.70;1.30;;;20.00;1.00;;;;;;5100379;28;20043;-75
2021/08/18 12:11:37;;;;;;;2.65;1.30;;;20.40;1.00;;;;;;5097859;28;20055;-76
2021/08/18 12:14:27;;;;;;;1.75;1.13;;;19.80;1.00;;;;;;5078110;28;20050;-74
2021/08/18 12:17:16;;;;;;;2.05;1.27;;;19.80;1.00;;;;;;5083640;28;20044;-77
2021/08/18 12:20:22;;;;;;;1.30;0.90;;;20.50;1.00;;;;;;5095434;28;20043;-75
2021/08/18 12:23:24;;;;;;;3.03;0.88;;;20.30;1.00;;;;;;5092481;28;20197;-74
2021/08/18 12:26:25;;;;;;;3.40;0.90;;;20.10;1.00;;;;;;5087764;28;20438;-75
2021/08/18 12:29:20;;;;;;;1.45;0.90;;;19.80;1.00;;;;;;5058812;28;20522;-75
2021/08/18 12:32:10;;;;;;;;;;;19.60;1.00;;;;;;5067956;28;20435;-75
2021/08/18 12:35:01;;;;;;;3.33;1.50;;;20.10;1.00;;;;;;5087937;28;20020;-76
2021/08/18 12:37:53;;;;;;;1.88;0.90;;;20.00;1.00;;;;;;5067529;28;20043;-75
2021/08/18 12:40:42;;;;;;;1.48;1.00;;;20.30;1.00;;;;;;5087730;28;20050;-74
2021/08/18 12:43:30;;;;;;;1.80;1.25;;;19.90;1.00;;;;;;5058544;28;20568;-74
2021/08/18 12:46:24;;;;;;;1.67;0.93;;;20.20;1.00;;;;;;5058085;28;20052;-74
2021/08/18 12:49:26;;;;;;;1.33;0.90;;;20.90;1.00;;;;;;5076870;28;20631;-75
2021/08/18 12:52:16;;;;;;;1.40;0.98;;;20.80;1.00;;;;;;5088236;28;20458;-75
2021/08/18 12:55:05;;;;;;;2.13;1.20;;;21.20;1.00;;;;;;5095843;27;20044;-75
2021/08/18 12:57:54;;;;;;;1.10;0.80;;;21.10;1.00;;;;;;5090957;28;20043;-75
2021/08/18 13:00:42;;;;;;;4.47;1.17;;;20.80;1.00;;;;;;5091109;28;20047;-76
2021/08/18 13:03:32;;;;;;;1.92;1.10;;;20.20;1.00;;;;;;5095053;28;20093;-76
2021/08/18 13:06:21;;;;;;;2.20;1.08;;;20.40;1.00;;;;;;5089037;27;20055;-75
2021/08/18 13:09:09;;;;;;;1.35;0.98;;;20.60;1.00;;;;;;5097623;28;20074;-75
2021/08/18 13:11:59;;;;;;;1.30;0.93;;;20.70;1.00;;;;;;5068473;28;20578;-75
2021/08/18 13:14:48;;;;;;;0.95;0.73;;;21.20;1.00;;;;;;5068398;28;20044;-75
2021/08/18 13:17:36;;;;;;;1.08;0.98;;;20.60;1.00;;;;;;5086631;27;20109;-75
2021/08/18 13:20:26;;;;;;;2.75;1.00;;;20.30;1.00;;;;;;5093883;27;20130;-75
2021/08/18 13:23:14;;;;;;;1.33;1.00;;;21.00;1.00;;;;;;5097586;27;20074;-75
2021/08/18 13:26:03;;;;;;;2.17;1.13;;;20.80;1.00;;;;;;5095867;27;20051;-76
2021/08/18 13:28:52;;;;;;;1.88;0.90;;;21.00;1.00;;;;;;5098156;27;20048;-75
2021/08/18 13:31:41;;;;;;;1.20;0.80;;;21.10;1.00;;;;;;5095539;28;20043;-75
2021/08/18 13:34:29;;;;;;;1.83;1.08;;;21.00;1.00;;;;;;5099920;28;20040;-76
2021/08/18 13:37:19;;;;;;;2.17;1.40;;;20.70;1.00;;;;;;5094494;27;20091;-76
2021/08/18 13:40:09;;;;;;;1.85;1.02;;;21.30;1.00;;;;;;5102086;27;20069;-74
2021/08/18 13:42:57;;;;;;;2.42;1.00;;;21.00;1.00;;;;;;5076810;28;20058;-75
2021/08/18 13:45:46;;;;;;;2.50;1.15;;;21.10;1.00;;;;;;5095542;27;20047;-76
2021/08/18 13:48:34;;;;;;;1.88;1.40;;;21.10;1.00;;;;;;5095199;28;20043;-75
2021/08/18 13:51:23;;;;;;;1.38;1.10;;;20.50;1.00;;;;;;5099523;27;20103;-75
2021/08/18 13:54:13;;;;;;;2.00;1.00;;;20.70;1.00;;;;;;5098184;28;20036;-75
2021/08/18 13:57:01;;;;;;;1.48;1.30;;;20.60;1.00;;;;;;5100584;27;20097;-75
2021/08/18 13:59:50;;;;;;;6.68;1.13;;;20.40;1.00;;;;;;5095008;28;20052;-75
2021/08/18 14:02:39;;;;;;;2.40;1.60;;;21.40;1.00;;;;;;5092767;27;20044;-75
2021/08/18 14:05:28;;;;;;;2.30;1.27;;;21.50;1.00;;;;;;5097871;28;20047;-75
2021/08/18 14:08:17;;;;;;;1.98;1.20;;;21.60;1.00;;;;;;5095988;27;20384;-75
2021/08/18 14:11:07;;;;;;;1.27;0.90;;;21.10;1.00;;;;;;5096344;28;20130;-75
2021/08/18 14:13:56;;;;;;;1.42;1.10;;;20.90;1.00;;;;;;5092136;27;20062;-77
2021/08/18 14:16:45;;;;;;;2.92;0.80;;;20.60;1.00;;;;;;5078902;28;21161;-76
2021/08/18 14:19:33;;;;;;;1.00;0.90;;;20.60;1.00;;;;;;5097876;27;20422;-74
2021/08/18 14:22:22;;;;;;;1.63;1.00;;;20.90;1.00;;;;;;5096734;27;20063;-75
2021/08/18 14:25:11;;;;;;;1.05;0.93;;;20.80;1.00;;;;;;5100227;27;20043;-76
2021/08/18 14:28:00;;;;;;;1.77;1.10;;;20.90;1.00;;;;;;5089768;27;20040;-74
2021/08/18 14:30:49;;;;;;;1.23;1.10;;;21.00;1.00;;;;;;5100049;27;20154;-75
2021/08/18 14:33:37;;;;;;;1.85;0.98;;;20.50;1.00;;;;;;5095820;28;20047;-75
2021/08/18 14:36:26;;;;;;;2.05;1.05;;;21.00;1.00;;;;;;5090510;27;20071;-76
2021/08/18 14:39:14;;;;;;;3.55;1.02;;;20.90;1.00;;;;;;5097734;27;20047;-75
2021/08/18 14:42:03;;;;;;;3.60;1.05;;;20.40;1.00;;;;;;5094830;28;20593;-75
2021/08/18 14:44:52;;;;;;;1.40;0.80;;;20.50;1.00;;;;;;5093628;28;20047;-75